Reese AFB, Texas
Current Conditions -  °F | °C
As of 8:53 AM on Thursday 23 Oct 2014 (Local Time) from KLBB Reporting Station
Moderate Fog Moderate Fog  
Wind Chill: 11°   Ceiling: 200
Heat Index: 11°   Visibility: 0.12mi
Dew Point: 11°   Wind: 7mph
Humidity: 97%   Direction: 230°SW
Pressure: 30.15"   Gusts: NA
Location:  33.59°N, 102.03°W
Report Text: KLBB 231353Z 23006KT 1/8SM R17R/0800V1000FT FG VV002 11/11 A3015 RMK AO2 SLP184 T01110106 $
Loading
Personal Weather Stations






























Interactive Weather Map
Tropical Storm Tracking
New forecast layout! Learn more

10-Day Weather Forecast

Advertisements
Track Severe Weather on mobile